This is the latest recevied weather packets stored in our database for station/object CE4ERM-13. If no packets are shown the sender has not sent any weather packets the latest 1 day(s).
| Time | Temp. | Humidity | Pressure | Rain* | Wind** | Luminosity | Snow |
|---|---|---|---|---|---|---|---|
| 1777889851 | 19.44° C | 35% | 1017.3 hPa | - | - | - | - |
| 1777889424 | 17.22° C | 43% | 1019 hPa | - | - | - | - |
| 1777889251 | 19.44° C | 35% | 1018.7 hPa | - | - | - | - |
| 1777888824 | 17.78° C | 39% | 1018.5 hPa | - | - | - | - |
| 1777888651 | 19.44° C | 35% | 1018.6 hPa | - | - | - | - |
| 1777888231 | 17.78° C | 37% | 1017.8 hPa | - | - | - | - |
| 1777888051 | 19.44° C | 34% | 1018 hPa | - | - | - | - |
| 1777887630 | 17.78° C | 37% | 1019.6 hPa | - | - | - | - |
| 1777887450 | 19.44° C | 34% | 1017.8 hPa | - | - | - | - |
| 1777887023 | 17.78° C | 37% | 1015.4 hPa | - | - | - | - |
| 1777886850 | 19.44° C | 35% | 1017.8 hPa | - | - | - | - |
| 1777886423 | 17.78° C | 38% | 1018.1 hPa | - | - | - | - |
| 1777886250 | 18.89° C | 35% | 1017.2 hPa | - | - | - | - |
| 1777885823 | 18.33° C | 37% | 1018.2 hPa | - | - | - | - |
| 1777885649 | 18.89° C | 35% | 1016.6 hPa | - | - | - | - |
| 1777885050 | 18.89° C | 35% | 1017.3 hPa | - | - | - | - |
| 1777884621 | 18.33° C | 37% | 1018.9 hPa | - | - | - | - |
| 1777884450 | 18.33° C | 36% | 1017.1 hPa | - | - | - | - |
| 1777884020 | 18.33° C | 37% | 1017.9 hPa | - | - | - | - |
| 1777883849 | 18.89° C | 35% | 1017.6 hPa | - | - | - | - |
| 1777883420 | 18.33° C | 37% | 1018.4 hPa | - | - | - | - |
| 1777883249 | 18.89° C | 35% | 1017 hPa | - | - | - | - |
| 1777882820 | 18.33° C | 37% | 1017.4 hPa | - | - | - | - |
| 1777882649 | 18.89° C | 34% | 1015 hPa | - | - | - | - |
| 1777882220 | 18.33° C | 37% | 1022.2 hPa | - | - | - | - |
* Rain since midnight (hover to see other rain measurements)
** Current wind speed in m/s (hover to see current wind gust speed)